createdAt,value
2019-03-16T00:00:06.331Z,0
2019-03-16T00:01:06.281Z,0
2019-03-16T00:02:06.373Z,0
2019-03-16T00:03:06.302Z,0
2019-03-16T00:04:06.254Z,0
2019-03-16T00:05:05.978Z,0
2019-03-16T00:06:06.266Z,0
2019-03-16T00:07:06.304Z,0
2019-03-16T00:08:06.210Z,0
2019-03-16T00:09:06.172Z,0
2019-03-16T00:10:06.181Z,0
2019-03-16T00:11:06.174Z,0
2019-03-16T00:12:06.709Z,0
2019-03-16T00:13:06.165Z,0
2019-03-16T00:14:05.598Z,0
2019-03-16T00:15:06.082Z,0
2019-03-16T00:16:06.057Z,0
2019-03-16T00:17:06.042Z,0
2019-03-16T00:18:06.014Z,0
2019-03-16T00:19:06.014Z,0
2019-03-16T00:20:06.019Z,0
2019-03-16T00:21:05.979Z,0
2019-03-16T00:22:05.967Z,0
2019-03-16T00:23:05.809Z,0
2019-03-16T00:24:06.011Z,0
2019-03-16T00:25:06.023Z,0
2019-03-16T00:26:05.897Z,0
2019-03-16T00:27:05.880Z,0
2019-03-16T00:28:05.702Z,0
2019-03-16T00:29:05.843Z,0
2019-03-16T00:30:05.340Z,0
2019-03-16T00:31:05.818Z,0
2019-03-16T00:32:17.721Z,0
2019-03-16T00:33:05.782Z,0
2019-03-16T00:34:05.773Z,0
2019-03-16T00:35:05.821Z,0
2019-03-16T00:36:05.758Z,0
2019-03-16T00:37:05.721Z,0
2019-03-16T00:38:05.773Z,0
2019-03-16T00:39:05.706Z,0
2019-03-16T00:40:05.675Z,0
2019-03-16T00:41:05.406Z,0
2019-03-16T00:42:05.711Z,0
2019-03-16T00:43:05.627Z,0
2019-03-16T00:44:05.617Z,0
2019-03-16T00:45:05.596Z,0
2019-03-16T00:46:05.582Z,0
2019-03-16T00:47:05.578Z,0
2019-03-16T00:48:05.317Z,0
2019-03-16T00:49:05.291Z,0
2019-03-16T00:50:05.532Z,0
2019-03-16T00:51:05.271Z,0
2019-03-16T00:52:05.512Z,0
2019-03-16T00:53:05.564Z,0
2019-03-16T00:54:05.210Z,0
2019-03-16T00:55:05.443Z,0
2019-03-16T00:56:05.438Z,0
2019-03-16T00:57:05.417Z,0
2019-03-16T00:58:05.147Z,0
2019-03-16T00:59:05.142Z,0
2019-03-16T01:00:05.119Z,0
2019-03-16T01:01:05.111Z,0
2019-03-16T01:02:05.084Z,0
2019-03-16T01:03:04.828Z,0
2019-03-16T01:04:05.055Z,0
2019-03-16T01:05:05.284Z,0
2019-03-16T01:06:05.038Z,0
2019-03-16T01:07:05.270Z,0
2019-03-16T01:08:05.237Z,0
2019-03-16T01:09:05.231Z,0
2019-03-16T01:10:05.070Z,0
2019-03-16T01:11:05.207Z,0
2019-03-16T01:12:04.937Z,0
2019-03-16T01:13:05.231Z,0
2019-03-16T01:14:04.913Z,0
2019-03-16T01:15:05.311Z,0
2019-03-16T01:16:04.867Z,0
2019-03-16T01:17:05.104Z,0
2019-03-16T01:18:04.833Z,0
2019-03-16T01:19:05.066Z,0
2019-03-16T01:20:04.918Z,0
2019-03-16T01:21:05.033Z,0
2019-03-16T01:22:05.053Z,0
2019-03-16T01:23:05.006Z,0
2019-03-16T01:24:04.759Z,0
2019-03-16T01:25:05.145Z,0
2019-03-16T01:26:04.971Z,0
2019-03-16T01:27:04.692Z,0
2019-03-16T01:28:04.927Z,0
2019-03-16T01:29:04.910Z,0
2019-03-16T01:30:05.067Z,0
2019-03-16T01:31:04.881Z,0
2019-03-16T01:32:04.868Z,0
2019-03-16T01:33:04.848Z,0
2019-03-16T01:34:04.837Z,0
2019-03-16T01:35:04.574Z,0
2019-03-16T01:36:04.916Z,0
2019-03-16T01:37:04.786Z,0
2019-03-16T01:38:04.807Z,0
2019-03-16T01:39:04.759Z,0
2019-03-16T01:40:04.733Z,0
2019-03-16T01:41:04.725Z,0
2019-03-16T01:42:04.465Z,0
2019-03-16T01:43:04.690Z,0
2019-03-16T01:44:04.686Z,0
2019-03-16T01:45:04.663Z,0
2019-03-16T01:46:04.682Z,0
2019-03-16T01:47:04.636Z,0
2019-03-16T01:48:04.639Z,0
2019-03-16T01:49:04.601Z,0
2019-03-16T01:50:04.340Z,0
2019-03-16T01:51:04.080Z,0
2019-03-16T01:52:04.309Z,0
2019-03-16T01:53:04.531Z,0
2019-03-16T01:54:04.539Z,0
2019-03-16T01:55:04.502Z,0
2019-03-16T01:56:04.482Z,0
2019-03-16T01:57:04.471Z,0
2019-03-16T01:58:04.448Z,0
2019-03-16T01:59:04.441Z,0
2019-03-16T02:00:04.423Z,0
2019-03-16T02:01:04.416Z,0
2019-03-16T02:02:04.392Z,0
2019-03-16T02:03:04.380Z,0
2019-03-16T02:04:04.363Z,0
2019-03-16T02:05:04.123Z,0
2019-03-16T02:06:04.401Z,0
2019-03-16T02:07:04.063Z,0
2019-03-16T02:08:04.313Z,0
2019-03-16T02:09:04.291Z,0
2019-03-16T02:10:04.021Z,0
2019-03-16T02:11:04.247Z,0
2019-03-16T02:12:07.620Z,0
2019-03-16T02:13:03.975Z,0
2019-03-16T02:14:04.206Z,0
2019-03-16T02:15:04.191Z,0
2019-03-16T02:16:17.368Z,0
2019-03-16T02:17:04.157Z,0
2019-03-16T02:18:04.147Z,0
2019-03-16T02:19:04.129Z,0
2019-03-16T02:20:04.114Z,0
2019-03-16T02:21:04.107Z,0
2019-03-16T02:22:04.081Z,0
2019-03-16T02:23:03.823Z,0
2019-03-16T02:24:03.827Z,0
2019-03-16T02:25:03.789Z,0
2019-03-16T02:26:04.017Z,0
2019-03-16T02:27:04.009Z,0
2019-03-16T02:28:03.985Z,0
2019-03-16T02:29:03.968Z,0
2019-03-16T02:30:03.960Z,0
2019-03-16T02:31:03.710Z,0
2019-03-16T02:32:03.706Z,0
2019-03-16T02:33:19.421Z,0
2019-03-16T02:34:03.896Z,0
2019-03-16T02:35:03.910Z,0
2019-03-16T02:36:03.870Z,0
2019-03-16T02:37:03.854Z,0
2019-03-16T02:38:03.863Z,0
2019-03-16T02:39:03.826Z,0
2019-03-16T02:40:03.809Z,0
2019-03-16T02:41:03.568Z,0
2019-03-16T02:42:03.782Z,0
2019-03-16T02:43:03.781Z,0
2019-03-16T02:44:03.520Z,0
2019-03-16T02:45:03.833Z,0
2019-03-16T02:46:03.460Z,0
2019-03-16T02:47:03.465Z,0
2019-03-16T02:48:03.691Z,0
2019-03-16T02:49:03.663Z,0
2019-03-16T02:50:03.650Z,0
2019-03-16T02:51:03.423Z,0
2019-03-16T02:52:03.619Z,0
2019-03-16T02:53:03.628Z,0
2019-03-16T02:54:03.603Z,0
2019-03-16T02:55:03.611Z,0
2019-03-16T02:56:03.636Z,0
2019-03-16T02:57:03.550Z,0
2019-03-16T02:58:03.305Z,0
2019-03-16T02:59:03.530Z,0
2019-03-16T03:00:03.499Z,0
2019-03-16T03:01:03.602Z,0
2019-03-16T03:02:03.473Z,0
2019-03-16T03:03:03.455Z,0
2019-03-16T03:04:03.192Z,0
2019-03-16T03:05:03.427Z,0
2019-03-16T03:06:03.425Z,0
2019-03-16T03:07:03.174Z,0
2019-03-16T03:08:03.390Z,0
2019-03-16T03:09:03.352Z,0
2019-03-16T03:10:03.479Z,0
2019-03-16T03:11:03.390Z,0
2019-03-16T03:12:03.313Z,0
2019-03-16T03:13:03.298Z,0
2019-03-16T03:14:03.267Z,0
2019-03-16T03:15:03.260Z,0
2019-03-16T03:16:03.266Z,0
2019-03-16T03:17:03.262Z,0
2019-03-16T03:18:03.225Z,0
2019-03-16T03:19:03.197Z,0
2019-03-16T03:20:03.228Z,0
2019-03-16T03:21:02.912Z,0
2019-03-16T03:22:03.180Z,0
2019-03-16T03:23:03.133Z,0
2019-03-16T03:24:03.125Z,0
2019-03-16T03:25:03.086Z,0
2019-03-16T03:26:03.088Z,0
2019-03-16T03:27:03.064Z,0
2019-03-16T03:28:03.044Z,0
2019-03-16T03:29:03.043Z,0
2019-03-16T03:30:04.783Z,0
2019-03-16T03:31:03.153Z,0
2019-03-16T03:32:03.109Z,0
2019-03-16T03:33:03.051Z,0
2019-03-16T03:34:09.132Z,0
2019-03-16T03:35:03.597Z,0
2019-03-16T03:36:02.668Z,0
2019-03-16T03:37:02.905Z,0
2019-03-16T03:38:02.891Z,0
2019-03-16T03:39:02.871Z,0
2019-03-16T03:40:02.880Z,0
2019-03-16T03:41:06.609Z,0
2019-03-16T03:42:02.828Z,0
2019-03-16T03:43:02.867Z,0
2019-03-16T03:44:02.797Z,0
2019-03-16T03:45:02.794Z,0
2019-03-16T03:46:02.523Z,0
2019-03-16T03:47:02.749Z,0
2019-03-16T03:48:02.748Z,0
2019-03-16T03:49:02.718Z,0
2019-03-16T03:50:02.937Z,0
2019-03-16T03:51:02.679Z,0
2019-03-16T03:52:02.416Z,0
2019-03-16T03:53:02.663Z,0
2019-03-16T03:54:02.627Z,0
2019-03-16T03:55:02.531Z,0
2019-03-16T03:56:02.594Z,0
2019-03-16T03:57:02.345Z,0
2019-03-16T03:58:02.615Z,0
2019-03-16T03:59:02.554Z,0
2019-03-16T04:00:02.085Z,0
2019-03-16T04:01:02.542Z,0
2019-03-16T04:02:02.258Z,0
2019-03-16T04:03:02.497Z,0
2019-03-16T04:04:20.176Z,0
2019-03-16T04:05:02.683Z,0
2019-03-16T04:06:02.438Z,0
2019-03-16T04:07:02.429Z,0
2019-03-16T04:08:02.403Z,0
2019-03-16T04:09:02.162Z,0
2019-03-16T04:10:02.384Z,0
2019-03-16T04:11:02.444Z,0
2019-03-16T04:12:02.129Z,0
2019-03-16T04:13:02.374Z,0
2019-03-16T04:14:02.309Z,0
2019-03-16T04:15:02.317Z,0
2019-03-16T04:16:02.032Z,0
2019-03-16T04:17:02.447Z,0
2019-03-16T04:18:02.242Z,0
2019-03-16T04:19:02.239Z,0
2019-03-16T04:20:01.986Z,0
2019-03-16T04:21:02.202Z,0
2019-03-16T04:22:02.202Z,0
2019-03-16T04:23:02.162Z,0
2019-03-16T04:24:02.146Z,0
2019-03-16T04:25:02.159Z,0
2019-03-16T04:26:02.168Z,0
2019-03-16T04:27:17.514Z,0
2019-03-16T04:28:02.104Z,0
2019-03-16T04:29:01.832Z,0
2019-03-16T04:30:02.052Z,0
2019-03-16T04:31:01.789Z,0
2019-03-16T04:32:02.023Z,0
2019-03-16T04:33:02.103Z,0
2019-03-16T04:34:01.992Z,0
2019-03-16T04:35:01.977Z,0
2019-03-16T04:36:01.710Z,0
2019-03-16T04:37:01.683Z,0
2019-03-16T04:38:01.939Z,0
2019-03-16T04:39:01.663Z,0
2019-03-16T04:40:01.911Z,0
2019-03-16T04:41:01.868Z,0
2019-03-16T04:42:01.857Z,0
2019-03-16T04:43:01.846Z,0
2019-03-16T04:44:01.583Z,0
2019-03-16T04:45:01.822Z,0
2019-03-16T04:46:01.301Z,0
2019-03-16T04:47:01.776Z,0
2019-03-16T04:48:01.765Z,0
2019-03-16T04:49:01.527Z,0
2019-03-16T04:50:01.724Z,0
2019-03-16T04:51:01.712Z,0
2019-03-16T04:52:01.694Z,0
2019-03-16T04:53:01.456Z,0
2019-03-16T04:54:01.665Z,0
2019-03-16T04:55:01.655Z,0
2019-03-16T04:56:01.639Z,0
2019-03-16T04:57:01.616Z,0
2019-03-16T04:58:01.599Z,0
2019-03-16T04:59:01.341Z,0
2019-03-16T05:00:01.563Z,0
2019-03-16T05:01:01.554Z,0
2019-03-16T05:02:01.296Z,0
2019-03-16T05:03:01.517Z,0
2019-03-16T05:04:01.517Z,0
2019-03-16T05:05:01.485Z,4
2019-03-16T05:06:00.987Z,4
2019-03-16T05:07:01.210Z,0
2019-03-16T05:08:01.449Z,4
2019-03-16T05:09:01.176Z,4
2019-03-16T05:10:01.416Z,8
2019-03-16T05:11:01.406Z,8
2019-03-16T05:12:01.380Z,8
2019-03-16T05:13:01.352Z,4
2019-03-16T05:14:01.343Z,8
2019-03-16T05:15:01.330Z,8
2019-03-16T05:16:01.323Z,8
2019-03-16T05:17:01.288Z,8
2019-03-16T05:18:01.277Z,12
2019-03-16T05:19:01.262Z,12
2019-03-16T05:20:01.274Z,16
2019-03-16T05:21:00.981Z,20
2019-03-16T05:22:00.967Z,24
2019-03-16T05:23:01.195Z,20
2019-03-16T05:24:02.827Z,24
2019-03-16T05:25:01.162Z,28
2019-03-16T05:26:00.896Z,28
2019-03-16T05:27:00.635Z,28
2019-03-16T05:28:01.114Z,28
2019-03-16T05:29:01.117Z,44
2019-03-16T05:30:01.082Z,40
2019-03-16T05:31:01.060Z,44
2019-03-16T05:32:00.810Z,48
2019-03-16T05:33:01.028Z,60
2019-03-16T05:34:01.015Z,68
2019-03-16T05:35:03.885Z,56
2019-03-16T05:36:00.735Z,44
2019-03-16T05:37:03.268Z,52
2019-03-16T05:38:00.954Z,56
2019-03-16T05:39:00.932Z,92
2019-03-16T05:40:00.920Z,72
2019-03-16T05:41:00.758Z,80
2019-03-16T05:42:00.886Z,64
2019-03-16T05:43:00.867Z,84
2019-03-16T05:44:00.850Z,96
2019-03-16T05:45:00.834Z,84
2019-03-16T05:46:00.819Z,96
2019-03-16T05:47:00.550Z,84
2019-03-16T05:48:00.786Z,100
2019-03-16T05:49:00.767Z,144
2019-03-16T05:50:00.508Z,176
2019-03-16T05:51:02.303Z,120
2019-03-16T05:52:00.723Z,112
2019-03-16T05:53:00.696Z,124
2019-03-16T05:54:00.698Z,196
2019-03-16T05:55:00.418Z,268
2019-03-16T05:56:00.662Z,288
2019-03-16T05:57:00.388Z,292
2019-03-16T05:58:00.370Z,236
2019-03-16T05:59:00.615Z,232
2019-03-16T06:00:00.588Z,200
2019-03-16T06:01:00.587Z,212
2019-03-16T06:02:00.574Z,180
2019-03-16T06:03:00.537Z,176
2019-03-16T06:04:00.543Z,268
2019-03-16T06:05:14.485Z,416
2019-03-16T06:06:00.247Z,460
2019-03-16T06:07:00.482Z,480
2019-03-16T06:08:00.448Z,384
2019-03-16T06:09:00.441Z,424
2019-03-16T06:10:00.543Z,296
2019-03-16T06:11:00.157Z,252
2019-03-16T06:12:00.139Z,236
2019-03-16T06:13:00.377Z,284
2019-03-16T06:14:00.355Z,356
2019-03-16T06:15:00.378Z,268
2019-03-16T06:16:00.076Z,232
2019-03-16T06:17:00.304Z,220
2019-03-16T06:18:00.296Z,232
2019-03-16T06:19:00.273Z,292
2019-03-16T06:20:00.366Z,424
2019-03-16T06:21:00.243Z,440
2019-03-16T06:21:59.731Z,604
2019-03-16T06:22:59.953Z,588
2019-03-16T06:23:59.948Z,608
2019-03-16T06:25:00.376Z,648
2019-03-16T06:26:00.172Z,592
2019-03-16T06:26:59.894Z,624
2019-03-16T06:27:59.884Z,608
2019-03-16T06:29:00.109Z,608
2019-03-16T06:29:59.847Z,632
2019-03-16T06:31:00.076Z,524
2019-03-16T06:32:00.060Z,548
2019-03-16T06:32:59.550Z,524
2019-03-16T06:34:00.030Z,488
2019-03-16T06:34:59.766Z,444
2019-03-16T06:35:59.749Z,368
2019-03-16T06:36:59.731Z,316
2019-03-16T06:37:59.964Z,344
2019-03-16T06:38:59.693Z,448
2019-03-16T06:39:59.925Z,660
2019-03-16T06:40:59.930Z,732
2019-03-16T06:41:59.652Z,708
2019-03-16T06:42:59.884Z,808
2019-03-16T06:43:59.954Z,656
2019-03-16T06:44:59.853Z,556
2019-03-16T06:45:59.937Z,676
2019-03-16T06:46:59.577Z,1080
2019-03-16T06:48:01.724Z,1240
2019-03-16T06:48:59.779Z,1068
2019-03-16T06:49:59.530Z,992
2019-03-16T06:50:59.573Z,984
2019-03-16T06:51:59.742Z,1060
2019-03-16T06:52:59.477Z,1116
2019-03-16T06:53:59.459Z,1048
2019-03-16T06:54:59.686Z,1000
2019-03-16T06:55:59.667Z,1016
2019-03-16T06:56:59.653Z,984
2019-03-16T06:57:59.385Z,1024
2019-03-16T06:59:03.161Z,1152
2019-03-16T06:59:59.627Z,1212
2019-03-16T07:00:59.678Z,1276
2019-03-16T07:01:59.571Z,1164
2019-03-16T07:02:59.663Z,1208
2019-03-16T07:03:59.544Z,1096
2019-03-16T07:04:59.274Z,1220
2019-03-16T07:05:59.505Z,1192
2019-03-16T07:06:59.243Z,1148
2019-03-16T07:07:59.241Z,1108
2019-03-16T07:08:59.465Z,1056
2019-03-16T07:09:59.447Z,1040
2019-03-16T07:10:59.431Z,1064
2019-03-16T07:11:59.408Z,1320
2019-03-16T07:12:59.147Z,1308
2019-03-16T07:13:59.382Z,1192
2019-03-16T07:14:59.372Z,1148
2019-03-16T07:15:59.348Z,1332
2019-03-16T07:17:08.851Z,1056
2019-03-16T07:17:59.320Z,1360
2019-03-16T07:19:06.071Z,1712
2019-03-16T07:19:59.281Z,1416
2019-03-16T07:20:59.282Z,1476
2019-03-16T07:21:59.251Z,1352
2019-03-16T07:22:58.741Z,1232
2019-03-16T07:23:59.311Z,1192
2019-03-16T07:24:58.959Z,1216
2019-03-16T07:25:59.192Z,1376
2019-03-16T07:26:58.970Z,1532
2019-03-16T07:27:59.162Z,1724
2019-03-16T07:28:58.890Z,1816
2019-03-16T07:29:58.879Z,2040
2019-03-16T07:30:58.860Z,2288
2019-03-16T07:31:59.102Z,2104
2019-03-16T07:32:59.078Z,1904
2019-03-16T07:33:58.814Z,1932
2019-03-16T07:34:59.040Z,1920
2019-03-16T07:35:59.023Z,1876
2019-03-16T07:36:59.020Z,1776
2019-03-16T07:37:58.992Z,2152
2019-03-16T07:38:58.989Z,2452
2019-03-16T07:39:58.960Z,2796
2019-03-16T07:40:58.945Z,2704
2019-03-16T07:42:00.528Z,2512
2019-03-16T07:42:58.918Z,2464
2019-03-16T07:43:58.988Z,2396
2019-03-16T07:45:12.262Z,2360
2019-03-16T07:45:58.874Z,2260
2019-03-16T07:46:58.882Z,2128
2019-03-16T07:47:58.591Z,2432
2019-03-16T07:48:58.817Z,2472
2019-03-16T07:49:58.907Z,2172
2019-03-16T07:50:58.796Z,2128
2019-03-16T07:51:58.825Z,2284
2019-03-16T07:52:58.764Z,2628
2019-03-16T07:53:58.493Z,2720
2019-03-16T07:54:58.731Z,2592
2019-03-16T07:55:58.467Z,2448
2019-03-16T07:56:58.701Z,2336
2019-03-16T07:57:58.440Z,1964
2019-03-16T07:58:58.416Z,1900
2019-03-16T07:59:58.665Z,1936
2019-03-16T08:00:58.633Z,2032
2019-03-16T08:01:58.621Z,2008
2019-03-16T08:02:58.603Z,2280
2019-03-16T08:03:58.348Z,2536
2019-03-16T08:04:58.328Z,2760
2019-03-16T08:05:58.556Z,3152
2019-03-16T08:06:58.567Z,3180
2019-03-16T08:07:58.524Z,3100
2019-03-16T08:08:58.558Z,3036
2019-03-16T08:09:58.011Z,2908
2019-03-16T08:10:58.483Z,3132
2019-03-16T08:11:58.506Z,3548
2019-03-16T08:12:57.960Z,3844
2019-03-16T08:13:58.481Z,3756
2019-03-16T08:14:58.422Z,3744
2019-03-16T08:15:58.420Z,4012
2019-03-16T08:16:58.160Z,3752
2019-03-16T08:17:58.371Z,3672
2019-03-16T08:18:58.360Z,4192
2019-03-16T08:19:58.341Z,4524
2019-03-16T08:20:57.835Z,4480
2019-03-16T08:21:58.065Z,4776
2019-03-16T08:22:58.294Z,4672
2019-03-16T08:24:00.956Z,4772
2019-03-16T08:24:58.271Z,4912
2019-03-16T08:25:58.255Z,4672
2019-03-16T08:26:57.994Z,4204
2019-03-16T08:28:01.681Z,3588
2019-03-16T08:29:01.484Z,3824
2019-03-16T08:29:57.950Z,3936
2019-03-16T08:30:59.278Z,4384
2019-03-16T08:31:58.179Z,4372
2019-03-16T08:32:57.900Z,4292
2019-03-16T08:33:58.195Z,4660
2019-03-16T08:35:00.366Z,4872
2019-03-16T08:35:58.096Z,4948
2019-03-16T08:36:58.094Z,4396
2019-03-16T08:37:57.841Z,4480
2019-03-16T08:38:58.054Z,4980
2019-03-16T08:39:58.041Z,5020
2019-03-16T08:40:57.776Z,4844
2019-03-16T08:41:57.758Z,4856
2019-03-16T08:42:58.729Z,4472
2019-03-16T08:43:57.731Z,3808
2019-03-16T08:44:57.959Z,4444
2019-03-16T08:45:57.953Z,4416
2019-03-16T08:46:57.935Z,4668
2019-03-16T08:47:57.670Z,4020
2019-03-16T08:48:57.902Z,5388
2019-03-16T08:49:57.643Z,5708
2019-03-16T08:50:57.871Z,5204
2019-03-16T08:51:57.857Z,3584
2019-03-16T08:53:00.935Z,3804
2019-03-16T08:53:57.829Z,3276
2019-03-16T08:54:57.806Z,2956
2019-03-16T08:55:57.789Z,2996
2019-03-16T08:56:57.292Z,3288
2019-03-16T08:58:10.087Z,3316
2019-03-16T08:58:57.743Z,3900
2019-03-16T08:59:57.734Z,3880
2019-03-16T09:00:57.472Z,4284
2019-03-16T09:01:57.709Z,4108
2019-03-16T09:02:57.685Z,3836
2019-03-16T09:03:57.671Z,3616
2019-03-16T09:04:57.168Z,3592
2019-03-16T09:05:57.394Z,3772
2019-03-16T09:06:59.899Z,4344
2019-03-16T09:07:57.611Z,4760
2019-03-16T09:08:57.618Z,4496
2019-03-16T09:09:57.333Z,4540
2019-03-16T09:10:57.348Z,5020
2019-03-16T09:11:58.346Z,5404
2019-03-16T09:13:02.230Z,5720
2019-03-16T09:13:57.517Z,5884
2019-03-16T09:14:57.509Z,5812
2019-03-16T09:15:57.511Z,5320
2019-03-16T09:16:57.475Z,4768
2019-03-16T09:17:57.457Z,4724
2019-03-16T09:18:57.458Z,4900
2019-03-16T09:19:57.503Z,4900
2019-03-16T09:20:57.178Z,5408
2019-03-16T09:21:57.394Z,5760
2019-03-16T09:22:57.459Z,5856
2019-03-16T09:23:57.374Z,5928
2019-03-16T09:24:57.367Z,5916
2019-03-16T09:25:57.353Z,5736
2019-03-16T09:26:57.081Z,5172
2019-03-16T09:27:57.312Z,5308
2019-03-16T09:29:18.884Z,5824
2019-03-16T09:29:57.284Z,5804
2019-03-16T09:30:58.947Z,5520
2019-03-16T09:31:57.247Z,5208
2019-03-16T09:32:57.245Z,4228
2019-03-16T09:33:56.980Z,4456
2019-03-16T09:34:57.222Z,5524
2019-03-16T09:35:57.194Z,4172
2019-03-16T09:36:57.173Z,3708
2019-03-16T09:37:57.162Z,4536
2019-03-16T09:38:56.958Z,4420
2019-03-16T09:39:57.133Z,4012
2019-03-16T09:40:57.118Z,3820
2019-03-16T09:41:56.857Z,4360
2019-03-16T09:42:57.091Z,4640
2019-03-16T09:43:57.073Z,5060
2019-03-16T09:44:57.102Z,5484
2019-03-16T09:45:57.057Z,4576
2019-03-16T09:46:57.036Z,4348
2019-03-16T09:47:57.028Z,4900
2019-03-16T09:48:56.759Z,4388
2019-03-16T09:49:56.997Z,4276
2019-03-16T09:50:56.974Z,4664
2019-03-16T09:51:56.965Z,4652
2019-03-16T09:52:56.943Z,4700
2019-03-16T09:53:56.934Z,4748
2019-03-16T09:54:56.688Z,4676
2019-03-16T09:55:56.655Z,3856
2019-03-16T09:57:07.202Z,3956
2019-03-16T09:57:56.864Z,3440
2019-03-16T09:58:56.598Z,3592
2019-03-16T09:59:56.832Z,3808
2019-03-16T10:00:56.815Z,4100
2019-03-16T10:01:56.810Z,3704
2019-03-16T10:02:56.790Z,4216
2019-03-16T10:03:56.792Z,4468
2019-03-16T10:04:56.781Z,4328
2019-03-16T10:05:56.741Z,5172
2019-03-16T10:06:56.730Z,5408
2019-03-16T10:07:56.485Z,5656
2019-03-16T10:08:56.701Z,5620
2019-03-16T10:09:56.693Z,5556
2019-03-16T10:10:56.416Z,5624
2019-03-16T10:11:57.199Z,5776
2019-03-16T10:12:57.184Z,6036
2019-03-16T10:13:57.179Z,6552
2019-03-16T10:14:56.911Z,6248
2019-03-16T10:15:56.890Z,6672
2019-03-16T10:16:57.120Z,7348
2019-03-16T10:17:57.110Z,6908
2019-03-16T10:18:57.096Z,7316
2019-03-16T10:19:57.177Z,7072
2019-03-16T10:20:56.815Z,6592
2019-03-16T10:21:57.057Z,5876
2019-03-16T10:22:56.546Z,6096
2019-03-16T10:23:57.022Z,5976
2019-03-16T10:24:57.011Z,5800
2019-03-16T10:25:56.766Z,5736
2019-03-16T10:26:56.985Z,5440
2019-03-16T10:27:57.033Z,5080
2019-03-16T10:28:56.963Z,5140
2019-03-16T10:29:56.697Z,5504
2019-03-16T10:30:56.925Z,5540
2019-03-16T10:31:56.909Z,5048
2019-03-16T10:32:56.654Z,3968
2019-03-16T10:33:56.697Z,4800
2019-03-16T10:34:56.867Z,4444
2019-03-16T10:35:56.850Z,4240
2019-03-16T10:36:56.879Z,4352
2019-03-16T10:37:56.821Z,4276
2019-03-16T10:38:56.565Z,4144
2019-03-16T10:39:56.795Z,4660
2019-03-16T10:40:56.539Z,5196
2019-03-16T10:41:56.526Z,4512
2019-03-16T10:42:56.758Z,4088
2019-03-16T10:43:56.733Z,5136
2019-03-16T10:44:56.483Z,5692
2019-03-16T10:45:56.717Z,5804
2019-03-16T10:46:56.700Z,6112
2019-03-16T10:47:56.757Z,5456
2019-03-16T10:48:56.677Z,5768
2019-03-16T10:49:56.655Z,5868
2019-03-16T10:50:56.647Z,6084
2019-03-16T10:51:56.393Z,6576
2019-03-16T10:52:56.618Z,6944
2019-03-16T10:53:56.356Z,7056
2019-03-16T10:54:56.590Z,7140
2019-03-16T10:55:56.570Z,7380
2019-03-16T10:56:56.062Z,7184
2019-03-16T10:57:56.048Z,7040
2019-03-16T10:59:03.621Z,6136
2019-03-16T10:59:56.266Z,6724
2019-03-16T11:00:56.514Z,6892
2019-03-16T11:01:56.492Z,6756
2019-03-16T11:02:56.220Z,7196
2019-03-16T11:03:56.455Z,7092
2019-03-16T11:04:56.449Z,6500
2019-03-16T11:05:56.433Z,6884
2019-03-16T11:06:56.171Z,7752
2019-03-16T11:07:56.415Z,7568
2019-03-16T11:08:56.135Z,7348
2019-03-16T11:09:56.372Z,7864
2019-03-16T11:10:56.361Z,8300
2019-03-16T11:11:56.349Z,7708
2019-03-16T11:12:56.339Z,8160
2019-03-16T11:13:56.324Z,8400
2019-03-16T11:14:56.304Z,8120
2019-03-16T11:15:56.292Z,7756
2019-03-16T11:16:56.283Z,8008
2019-03-16T11:17:56.024Z,7872
2019-03-16T11:18:56.268Z,8060
2019-03-16T11:19:55.992Z,8228
2019-03-16T11:20:56.263Z,8100
2019-03-16T11:21:57.972Z,7832
2019-03-16T11:22:56.207Z,7972
2019-03-16T11:23:55.938Z,7996
2019-03-16T11:24:56.168Z,7760
2019-03-16T11:25:56.151Z,7456
2019-03-16T11:26:56.147Z,7684
2019-03-16T11:27:56.128Z,8056
2019-03-16T11:29:04.407Z,8352
2019-03-16T11:29:55.862Z,8480
2019-03-16T11:30:56.084Z,8416
2019-03-16T11:31:56.098Z,8596
2019-03-16T11:32:56.077Z,8884
2019-03-16T11:33:55.804Z,9004
2019-03-16T11:34:55.550Z,9028
2019-03-16T11:35:56.023Z,9232
2019-03-16T11:36:55.766Z,9556
2019-03-16T11:37:55.753Z,9696
2019-03-16T11:38:55.742Z,10380
2019-03-16T11:39:55.744Z,10572
2019-03-16T11:40:55.964Z,10424
2019-03-16T11:41:55.944Z,10624
2019-03-16T11:42:55.692Z,10932
2019-03-16T11:43:55.920Z,9996
2019-03-16T11:44:55.694Z,10868
2019-03-16T11:45:55.651Z,10952
2019-03-16T11:46:55.887Z,10768
2019-03-16T11:47:55.880Z,11076
2019-03-16T11:48:55.873Z,10960
2019-03-16T11:49:56.014Z,10136
2019-03-16T11:50:56.123Z,9908
2019-03-16T11:51:55.817Z,9420
2019-03-16T11:52:55.812Z,9428
2019-03-16T11:53:55.796Z,11116
2019-03-16T11:54:55.546Z,10992
2019-03-16T11:55:57.025Z,11160
2019-03-16T11:56:55.513Z,10600
2019-03-16T11:57:55.747Z,10964
2019-03-16T11:58:55.732Z,10612
2019-03-16T11:59:55.724Z,9304
2019-03-16T12:00:55.714Z,7828
2019-03-16T12:02:07.567Z,8304
2019-03-16T12:02:57.771Z,7164
2019-03-16T12:03:55.674Z,8332
2019-03-16T12:04:55.663Z,8108
2019-03-16T12:05:55.652Z,8532
2019-03-16T12:06:55.637Z,10848
2019-03-16T12:07:55.630Z,11340
2019-03-16T12:08:55.624Z,12032
2019-03-16T12:09:55.624Z,10784
2019-03-16T12:10:55.590Z,8528
2019-03-16T12:11:55.088Z,8536
2019-03-16T12:12:55.564Z,9056
2019-03-16T12:13:55.561Z,7452
2019-03-16T12:14:55.540Z,7464
2019-03-16T12:15:55.535Z,6056
2019-03-16T12:16:55.520Z,6868
2019-03-16T12:17:55.502Z,6484
2019-03-16T12:18:55.489Z,6096
2019-03-16T12:19:55.488Z,4644
2019-03-16T12:20:55.498Z,4260
2019-03-16T12:21:55.540Z,4604
2019-03-16T12:22:55.454Z,4724
2019-03-16T12:23:55.447Z,4448
2019-03-16T12:24:55.547Z,4112
2019-03-16T12:25:55.168Z,4012
2019-03-16T12:26:55.415Z,4136
2019-03-16T12:27:55.418Z,3784
2019-03-16T12:28:55.374Z,4312
2019-03-16T12:29:55.370Z,3712
2019-03-16T12:30:55.361Z,3872
2019-03-16T12:31:55.348Z,3968
2019-03-16T12:32:55.084Z,3876
2019-03-16T12:33:56.466Z,4136
2019-03-16T12:34:55.316Z,3568
2019-03-16T12:35:55.292Z,3816
2019-03-16T12:36:55.277Z,3588
2019-03-16T12:37:55.270Z,4084
2019-03-16T12:38:55.304Z,3828
2019-03-16T12:39:55.253Z,3708
2019-03-16T12:40:55.230Z,3796
2019-03-16T12:41:54.993Z,4000
2019-03-16T12:42:55.220Z,3480
2019-03-16T12:43:55.197Z,4572
2019-03-16T12:44:55.182Z,3900
2019-03-16T12:45:54.927Z,3700
2019-03-16T12:46:55.169Z,3044
2019-03-16T12:47:54.921Z,3704
2019-03-16T12:48:55.218Z,4464
2019-03-16T12:49:55.982Z,4048
2019-03-16T12:50:56.913Z,4152
2019-03-16T12:51:55.156Z,4612
2019-03-16T12:52:54.854Z,5440
2019-03-16T12:53:55.075Z,4224
2019-03-16T12:54:55.061Z,4048
2019-03-16T12:55:55.049Z,3848
2019-03-16T12:56:55.038Z,5496
2019-03-16T12:57:55.205Z,6100
2019-03-16T12:58:54.898Z,5776
2019-03-16T12:59:54.755Z,5896
2019-03-16T13:00:54.992Z,5592
2019-03-16T13:01:55.110Z,5180
2019-03-16T13:02:54.971Z,4168
2019-03-16T13:03:57.594Z,4780
2019-03-16T13:04:54.947Z,3852
2019-03-16T13:05:54.683Z,5428
2019-03-16T13:06:54.660Z,4668
2019-03-16T13:07:54.923Z,3536
2019-03-16T13:08:54.968Z,3148
2019-03-16T13:09:54.627Z,4036
2019-03-16T13:10:54.866Z,3240
2019-03-16T13:11:54.861Z,2816
2019-03-16T13:12:54.840Z,3472
2019-03-16T13:13:54.822Z,3784
2019-03-16T13:14:54.917Z,3764
2019-03-16T13:15:54.918Z,4240
2019-03-16T13:16:54.790Z,5232
2019-03-16T13:17:54.787Z,4332
2019-03-16T13:18:54.763Z,3616
2019-03-16T13:19:54.746Z,5428
2019-03-16T13:20:54.740Z,4556
2019-03-16T13:21:54.477Z,4548
2019-03-16T13:22:54.801Z,4012
2019-03-16T13:23:54.702Z,3988
2019-03-16T13:24:54.444Z,3412
2019-03-16T13:25:54.427Z,3052
2019-03-16T13:26:54.712Z,3328
2019-03-16T13:27:54.660Z,3352
2019-03-16T13:28:54.637Z,3744
2019-03-16T13:30:05.681Z,3388
2019-03-16T13:30:54.619Z,3456
2019-03-16T13:31:54.620Z,3860
2019-03-16T13:32:54.592Z,4340
2019-03-16T13:33:55.890Z,3996
2019-03-16T13:34:54.570Z,4020
2019-03-16T13:35:54.567Z,5552
2019-03-16T13:36:54.541Z,6352
2019-03-16T13:37:54.290Z,4812
2019-03-16T13:38:54.292Z,4108
2019-03-16T13:39:54.508Z,5444
2019-03-16T13:40:54.517Z,3060
2019-03-16T13:41:54.474Z,3152
2019-03-16T13:42:54.255Z,3512
2019-03-16T13:43:54.457Z,3648
2019-03-16T13:44:54.290Z,2296
2019-03-16T13:45:54.424Z,2056
2019-03-16T13:46:54.409Z,2072
2019-03-16T13:47:56.488Z,2072
2019-03-16T13:48:54.506Z,2096
2019-03-16T13:49:54.379Z,2672
2019-03-16T13:50:54.127Z,2144
2019-03-16T13:51:54.867Z,2580
2019-03-16T13:52:54.120Z,2620